Cannelburg, Indiana
Current Conditions -  °F | °C
As of 9:55 AM on Friday 21 Nov 2014 (Local Time) from KDCY Reporting Station
Clear Clear  
Wind Chill: 20°   Ceiling: Unl
Heat Index: 29°   Visibility: 10mi
Dew Point: 15°   Wind: 9mph
Humidity: 56%   Direction: 130°SE
Pressure: 30.51"   Gusts: NA
Location:  38.67°N, 87°W
Report Text: KDCY 211555Z AUTO 13008KT 10SM CLR M02/M09 A3051 RMK AO2 T10171094
Loading
Personal Weather Stations






























Interactive Weather Map New forecast layout! Learn more

10-Day Weather Forecast

Advertisements
Track Severe Weather on mobile